createdAt,value
2023-01-22T00:00:59.258Z,33.78
2023-01-22T00:03:25.986Z,34.38
2023-01-22T00:05:52.708Z,29.60
2023-01-22T00:08:19.780Z,33.10
2023-01-22T00:10:53.985Z,30.60
2023-01-22T00:13:22.750Z,28.70
2023-01-22T00:15:49.982Z,31.27
2023-01-22T00:18:17.496Z,30.95
2023-01-22T00:20:51.605Z,28.75
2023-01-22T00:23:18.869Z,30.17
2023-01-22T00:25:45.882Z,30.45
2023-01-22T00:28:12.899Z,30.50
2023-01-22T00:30:39.919Z,24.80
2023-01-22T00:33:06.776Z,25.90
2023-01-22T00:35:35.441Z,27.80
2023-01-22T00:38:02.228Z,25.00
2023-01-22T00:40:28.951Z,31.42
2023-01-22T00:42:55.700Z,28.77
2023-01-22T00:45:22.408Z,28.15
2023-01-22T00:47:49.297Z,23.75
2023-01-22T00:50:16.476Z,25.00
2023-01-22T00:52:45.262Z,25.10
2023-01-22T00:55:12.132Z,22.75
2023-01-22T00:57:38.897Z,26.17
2023-01-22T01:00:06.329Z,23.33
2023-01-22T01:02:33.161Z,24.02
2023-01-22T01:05:01.899Z,21.10
2023-01-22T01:07:28.727Z,20.92
2023-01-22T01:09:55.687Z,21.42
2023-01-22T01:12:22.371Z,19.75
2023-01-22T01:14:51.035Z,19.70
2023-01-22T01:17:17.712Z,18.90
2023-01-22T01:19:44.400Z,20.83
2023-01-22T01:22:11.733Z,19.40
2023-01-22T01:24:39.274Z,20.58
2023-01-22T01:27:05.996Z,23.35
2023-01-22T01:29:32.739Z,18.77
2023-01-22T01:31:59.536Z,19.15
2023-01-22T01:34:26.276Z,21.75
2023-01-22T01:36:53.053Z,21.25
2023-01-22T01:39:19.944Z,22.33
2023-01-22T01:41:47.040Z,21.73
2023-01-22T01:44:21.662Z,21.08
2023-01-22T01:47:07.523Z,22.10
2023-01-22T01:49:52.484Z,21.73
2023-01-22T01:52:20.398Z,19.08
2023-01-22T01:54:53.813Z,20.50
2023-01-22T01:57:24.745Z,20.83
2023-01-22T01:59:52.712Z,19.50
2023-01-22T02:02:22.738Z,18.65
2023-01-22T02:04:50.815Z,18.45
2023-01-22T02:07:18.603Z,21.08
2023-01-22T02:09:48.672Z,19.05
2023-01-22T02:12:15.413Z,16.58
2023-01-22T02:14:44.518Z,17.38
2023-01-22T02:17:14.566Z,20.05
2023-01-22T02:19:44.022Z,20.02
2023-01-22T02:22:17.376Z,17.08
2023-01-22T02:24:44.171Z,19.17
2023-01-22T02:27:11.220Z,20.25
2023-01-22T02:29:38.434Z,17.17
2023-01-22T02:32:05.251Z,23.33
2023-01-22T02:34:32.299Z,18.42
2023-01-22T02:37:01.066Z,19.20
2023-01-22T02:39:27.994Z,19.67
2023-01-22T02:41:56.248Z,19.42
2023-01-22T02:44:23.076Z,14.90
2023-01-22T02:46:49.873Z,18.48
2023-01-22T02:49:16.729Z,17.02
2023-01-22T02:51:43.453Z,15.98
2023-01-22T02:54:10.987Z,17.17
2023-01-22T02:56:38.319Z,18.80
2023-01-22T02:59:05.242Z,19.67
2023-01-22T03:01:32.335Z,19.10
2023-01-22T03:04:09.293Z,17.05
2023-01-22T03:06:37.055Z,14.70
2023-01-22T03:09:04.152Z,17.27
2023-01-22T03:11:37.147Z,16.42
2023-01-22T03:14:29.999Z,16.95
2023-01-22T03:17:16.178Z,14.63
2023-01-22T03:20:01.557Z,17.38
2023-01-22T03:22:29.235Z,17.13
2023-01-22T03:24:58.638Z,19.83
2023-01-22T03:27:27.248Z,17.80
2023-01-22T03:29:54.661Z,14.35
2023-01-22T03:32:22.569Z,16.65
2023-01-22T03:34:49.771Z,16.63
2023-01-22T03:37:16.599Z,18.70
2023-01-22T03:39:45.871Z,19.02
2023-01-22T03:42:21.074Z,17.50
2023-01-22T03:44:48.006Z,17.00
2023-01-22T03:47:17.251Z,20.10
2023-01-22T03:49:43.948Z,16.50
2023-01-22T03:52:10.691Z,19.42
2023-01-22T03:54:39.245Z,16.63
2023-01-22T03:57:07.453Z,16.23
2023-01-22T03:59:37.327Z,17.77
2023-01-22T04:02:04.077Z,16.38
2023-01-22T04:04:34.960Z,19.65
2023-01-22T04:07:02.388Z,17.48
2023-01-22T04:09:29.068Z,19.30
2023-01-22T04:11:57.351Z,20.05
2023-01-22T04:14:24.004Z,19.92
2023-01-22T04:17:01.886Z,17.88
2023-01-22T04:20:00.974Z,19.90
2023-01-22T04:22:50.372Z,15.98
2023-01-22T04:25:17.272Z,19.52
2023-01-22T04:27:45.007Z,21.52
2023-01-22T04:30:13.415Z,19.13
2023-01-22T04:32:40.095Z,19.38
2023-01-22T04:35:17.462Z,21.27
2023-01-22T04:37:50.742Z,18.48
2023-01-22T04:40:17.856Z,19.38
2023-01-22T04:42:45.755Z,20.77
2023-01-22T04:45:12.691Z,20.52
2023-01-22T04:47:44.328Z,22.65
2023-01-22T04:50:20.738Z,20.92
2023-01-22T04:52:47.694Z,26.40
2023-01-22T04:55:14.777Z,20.00
2023-01-22T04:57:48.389Z,22.17
2023-01-22T05:00:17.248Z,17.88
2023-01-22T05:02:44.284Z,21.08
2023-01-22T05:05:11.043Z,16.73
2023-01-22T05:07:37.749Z,16.33
2023-01-22T05:10:04.930Z,18.77
2023-01-22T05:12:31.621Z,20.50
2023-01-22T05:15:02.071Z,16.20
2023-01-22T05:17:29.638Z,17.60
2023-01-22T05:19:56.456Z,15.90
2023-01-22T05:22:23.207Z,21.13
2023-01-22T05:24:50.044Z,14.23
2023-01-22T05:27:17.395Z,15.43
2023-01-22T05:29:52.721Z,16.50
2023-01-22T05:32:56.156Z,16.02
2023-01-22T05:35:24.626Z,14.98
2023-01-22T05:37:51.491Z,14.55
2023-01-22T05:40:19.498Z,16.10
2023-01-22T05:42:46.400Z,14.45
2023-01-22T05:45:13.324Z,16.25
2023-01-22T05:47:55.478Z,14.35
2023-01-22T05:50:34.942Z,14.27
2023-01-22T05:53:08.675Z,17.15
2023-01-22T05:55:36.083Z,14.10
2023-01-22T05:58:06.258Z,18.65
2023-01-22T06:00:33.507Z,15.10
2023-01-22T06:03:02.884Z,16.45
2023-01-22T06:05:37.684Z,15.27
2023-01-22T06:08:07.792Z,15.25
2023-01-22T06:10:42.213Z,15.73
2023-01-22T06:13:08.988Z,15.25
2023-01-22T06:15:35.795Z,14.38
2023-01-22T06:18:15.515Z,18.70
2023-01-22T06:20:42.872Z,17.02
2023-01-22T06:23:10.557Z,18.65
2023-01-22T06:25:37.353Z,19.23
2023-01-22T06:28:11.436Z,14.15
2023-01-22T06:30:39.558Z,15.15
2023-01-22T06:33:06.618Z,19.92
2023-01-22T06:35:33.327Z,19.15
2023-01-22T06:38:00.108Z,17.05
2023-01-22T06:40:28.980Z,17.77
2023-01-22T06:42:57.631Z,17.35
2023-01-22T06:45:24.736Z,16.65
2023-01-22T06:47:55.644Z,17.88
2023-01-22T06:50:22.620Z,13.82
2023-01-22T06:52:49.418Z,15.00
2023-01-22T06:55:16.134Z,16.40
2023-01-22T06:57:42.808Z,16.38
2023-01-22T07:00:10.993Z,17.20
2023-01-22T07:02:37.726Z,16.55
2023-01-22T07:05:04.688Z,15.10
2023-01-22T07:07:31.741Z,14.45
2023-01-22T07:09:58.401Z,16.42
2023-01-22T07:12:25.051Z,18.05
2023-01-22T07:14:51.696Z,16.30
2023-01-22T07:17:18.456Z,17.15
2023-01-22T07:19:45.114Z,14.48
2023-01-22T07:22:13.923Z,15.93
2023-01-22T07:24:40.704Z,15.77
2023-01-22T07:27:07.805Z,15.38
2023-01-22T07:29:34.598Z,13.70
2023-01-22T07:32:01.463Z,14.82
2023-01-22T07:34:28.199Z,15.98
2023-01-22T07:36:54.852Z,14.40
2023-01-22T07:39:21.577Z,13.75
2023-01-22T07:41:48.280Z,12.75
2023-01-22T07:44:17.784Z,13.70
2023-01-22T07:46:44.516Z,11.65
2023-01-22T07:49:11.838Z,13.02
2023-01-22T07:51:38.559Z,11.88
2023-01-22T07:54:06.761Z,13.90
2023-01-22T07:56:33.504Z,13.40
2023-01-22T07:59:00.291Z,12.98
2023-01-22T08:01:27.227Z,12.82
2023-01-22T08:03:54.025Z,12.10
2023-01-22T08:06:20.959Z,16.38
2023-01-22T08:08:47.867Z,16.08
2023-01-22T08:11:14.897Z,13.48
2023-01-22T08:13:42.184Z,12.77
2023-01-22T08:16:09.445Z,10.68
2023-01-22T08:18:37.224Z,11.55
2023-01-22T08:21:04.359Z,9.75
2023-01-22T08:23:31.077Z,11.10
2023-01-22T08:26:03.281Z,10.77
2023-01-22T08:28:31.737Z,10.50
2023-01-22T08:31:03.436Z,12.70
2023-01-22T08:33:33.280Z,14.18
2023-01-22T08:36:00.119Z,11.73
2023-01-22T08:38:27.030Z,10.80
2023-01-22T08:40:54.195Z,12.10
2023-01-22T08:43:21.026Z,10.52
2023-01-22T08:45:49.398Z,13.30
2023-01-22T08:48:16.576Z,10.82
2023-01-22T08:50:43.385Z,13.20
2023-01-22T08:53:10.485Z,13.98
2023-01-22T08:55:37.211Z,11.63
2023-01-22T08:58:04.204Z,11.90
2023-01-22T09:00:31.273Z,11.07
2023-01-22T09:03:01.019Z,11.20
2023-01-22T09:05:28.458Z,14.20
2023-01-22T09:07:55.570Z,10.68
2023-01-22T09:10:25.584Z,9.32
2023-01-22T09:12:52.351Z,12.80
2023-01-22T09:15:18.989Z,11.30
2023-01-22T09:17:45.903Z,9.65
2023-01-22T09:20:12.825Z,10.43
2023-01-22T09:22:39.695Z,10.55
2023-01-22T09:25:06.880Z,13.60
2023-01-22T09:27:34.272Z,11.63
2023-01-22T09:30:01.001Z,11.00
2023-01-22T09:32:30.589Z,12.05
2023-01-22T09:34:57.352Z,11.65
2023-01-22T09:37:25.254Z,9.70
2023-01-22T09:39:52.325Z,12.50
2023-01-22T09:42:28.855Z,14.15
2023-01-22T09:45:02.901Z,14.20
2023-01-22T09:47:43.968Z,9.65
2023-01-22T09:50:24.594Z,12.18
2023-01-22T09:52:53.814Z,10.38
2023-01-22T09:55:23.135Z,14.52
2023-01-22T09:57:56.283Z,9.77
2023-01-22T10:00:40.951Z,12.65
2023-01-22T10:03:18.666Z,12.77
2023-01-22T10:05:51.571Z,8.63
2023-01-22T10:08:21.947Z,10.98
2023-01-22T10:10:54.608Z,7.60
2023-01-22T10:13:28.040Z,7.63
2023-01-22T10:15:56.357Z,8.30
2023-01-22T10:18:25.845Z,8.60
2023-01-22T10:20:54.164Z,10.50
2023-01-22T10:23:24.258Z,10.00
2023-01-22T10:26:07.449Z,10.13
2023-01-22T10:28:35.026Z,10.40
2023-01-22T10:31:01.799Z,11.07
2023-01-22T10:33:28.586Z,8.27
2023-01-22T10:35:57.068Z,10.25
2023-01-22T10:38:30.708Z,10.38
2023-01-22T10:41:03.519Z,10.65
2023-01-22T10:43:36.546Z,9.73
2023-01-22T10:46:26.644Z,12.52
2023-01-22T10:49:05.919Z,9.43
2023-01-22T10:51:42.322Z,10.30
2023-01-22T10:54:40.378Z,11.10
2023-01-22T10:57:18.924Z,10.23
2023-01-22T10:59:54.941Z,9.18
2023-01-22T11:02:24.939Z,10.65
2023-01-22T11:04:52.468Z,10.32
2023-01-22T11:07:27.505Z,12.18
2023-01-22T11:10:18.434Z,10.25
2023-01-22T11:13:09.349Z,9.45
2023-01-22T11:15:44.783Z,15.48
2023-01-22T11:18:23.253Z,9.63
2023-01-22T11:20:54.650Z,8.70
2023-01-22T11:23:35.568Z,9.15
2023-01-22T11:26:26.604Z,10.95
2023-01-22T11:29:09.701Z,12.73
2023-01-22T11:31:54.009Z,9.30
2023-01-22T11:34:51.794Z,11.57
2023-01-22T11:37:53.635Z,10.57
2023-01-22T11:40:29.929Z,9.27
2023-01-22T11:43:12.646Z,7.85
2023-01-22T11:46:35.187Z,11.38
2023-01-22T11:49:22.182Z,9.93
2023-01-22T11:52:18.494Z,8.93
2023-01-22T11:55:04.019Z,9.20
2023-01-22T11:57:37.267Z,9.90
2023-01-22T12:00:10.410Z,9.30
2023-01-22T12:02:42.813Z,11.10
2023-01-22T12:05:37.071Z,10.93
2023-01-22T12:08:12.751Z,12.93
2023-01-22T12:10:52.920Z,14.93
2023-01-22T12:13:39.624Z,9.55
2023-01-22T12:16:27.764Z,11.43
2023-01-22T12:19:00.705Z,10.35
2023-01-22T12:21:41.096Z,9.80
2023-01-22T12:24:22.229Z,10.55
2023-01-22T12:27:10.731Z,10.23
2023-01-22T12:29:48.910Z,9.23
2023-01-22T12:32:19.012Z,10.88
2023-01-22T12:34:55.456Z,10.35
2023-01-22T12:37:26.618Z,10.88
2023-01-22T12:40:23.753Z,11.43
2023-01-22T12:43:05.583Z,8.13
2023-01-22T12:45:50.881Z,9.98
2023-01-22T12:48:41.495Z,8.38
2023-01-22T12:51:44.986Z,9.18
2023-01-22T12:54:29.486Z,14.57
2023-01-22T12:57:20.726Z,13.70
2023-01-22T12:59:55.977Z,8.27
2023-01-22T13:02:35.559Z,10.55
2023-01-22T13:05:31.463Z,11.68
2023-01-22T13:08:16.632Z,11.13
2023-01-22T13:11:02.096Z,12.68
2023-01-22T13:13:40.030Z,11.38
2023-01-22T13:16:18.714Z,12.73
2023-01-22T13:18:52.074Z,11.38
2023-01-22T13:21:29.968Z,10.65
2023-01-22T13:24:10.690Z,12.55
2023-01-22T13:26:38.710Z,13.30
2023-01-22T13:29:17.883Z,12.88
2023-01-22T13:32:00.309Z,10.77
2023-01-22T13:34:28.253Z,12.82
2023-01-22T13:36:58.719Z,12.23
2023-01-22T13:39:31.690Z,12.95
2023-01-22T13:42:01.240Z,16.15
2023-01-22T13:44:40.999Z,14.15
2023-01-22T13:47:08.237Z,11.05
2023-01-22T13:49:42.373Z,12.40
2023-01-22T13:52:16.739Z,13.73
2023-01-22T13:55:05.721Z,12.75
2023-01-22T13:57:32.588Z,11.77
2023-01-22T14:00:01.228Z,12.13
2023-01-22T14:02:53.967Z,9.95
2023-01-22T14:05:24.390Z,10.43
2023-01-22T14:07:51.996Z,11.32
2023-01-22T14:10:22.295Z,12.23
2023-01-22T14:13:03.868Z,14.60
2023-01-22T14:15:31.842Z,12.35
2023-01-22T14:18:10.734Z,12.68
2023-01-22T14:20:43.412Z,11.82
2023-01-22T14:23:10.401Z,16.92
2023-01-22T14:25:38.813Z,16.00
2023-01-22T14:28:06.927Z,12.43
2023-01-22T14:30:34.307Z,13.20
2023-01-22T14:33:01.516Z,15.30
2023-01-22T14:35:28.562Z,13.23
2023-01-22T14:37:56.197Z,10.60
2023-01-22T14:40:25.792Z,15.07
2023-01-22T14:42:52.944Z,15.90
2023-01-22T14:45:47.367Z,14.23
2023-01-22T14:48:26.839Z,15.30
2023-01-22T14:50:53.828Z,14.35
2023-01-22T14:53:20.768Z,16.27
2023-01-22T14:55:47.639Z,14.25
2023-01-22T14:58:19.423Z,17.52
2023-01-22T15:00:49.271Z,15.27
2023-01-22T15:03:16.028Z,16.35
2023-01-22T15:05:42.865Z,14.88
2023-01-22T15:08:09.515Z,15.20
2023-01-22T15:10:36.174Z,15.18
2023-01-22T15:13:03.019Z,13.68
2023-01-22T15:15:29.937Z,19.17
2023-01-22T15:17:57.577Z,13.10
2023-01-22T15:20:25.278Z,16.75
2023-01-22T15:22:52.199Z,16.33
2023-01-22T15:25:19.108Z,17.40
2023-01-22T15:27:46.200Z,14.52
2023-01-22T15:30:14.333Z,22.27
2023-01-22T15:32:45.742Z,14.48
2023-01-22T15:35:12.877Z,15.30
2023-01-22T15:37:40.582Z,17.40
2023-01-22T15:40:17.028Z,14.65
2023-01-22T15:42:54.553Z,17.98
2023-01-22T15:45:21.326Z,15.45
2023-01-22T15:47:48.899Z,19.73
2023-01-22T15:50:22.616Z,16.90
2023-01-22T15:53:14.851Z,18.75
2023-01-22T15:55:50.271Z,17.35
2023-01-22T15:58:16.996Z,20.92
2023-01-22T16:00:43.887Z,15.93
2023-01-22T16:03:12.070Z,15.18
2023-01-22T16:05:38.829Z,15.85
2023-01-22T16:08:06.357Z,20.13
2023-01-22T16:13:38.674Z,18.73
2023-01-22T16:16:20.520Z,18.13
2023-01-22T16:25:26.745Z,20.05
2023-01-22T16:27:53.606Z,20.27
2023-01-22T16:30:20.880Z,17.52
2023-01-22T16:32:47.888Z,16.60
2023-01-22T16:35:15.035Z,19.35
2023-01-22T16:37:44.275Z,19.42
2023-01-22T16:40:11.712Z,19.05
2023-01-22T16:42:38.396Z,88.38
2023-01-22T16:45:05.525Z,18.48
2023-01-22T16:47:32.306Z,18.55
2023-01-22T16:49:59.061Z,20.00
2023-01-22T16:52:25.812Z,18.85
2023-01-22T16:54:52.544Z,27.77
2023-01-22T16:57:20.363Z,19.83
2023-01-22T16:59:47.318Z,17.75
2023-01-22T17:02:15.584Z,19.80
2023-01-22T17:04:42.576Z,20.50
2023-01-22T17:07:15.352Z,18.75
2023-01-22T17:09:50.434Z,19.75
2023-01-22T17:12:17.139Z,17.25
2023-01-22T17:14:46.147Z,20.48
2023-01-22T17:17:13.039Z,17.77
2023-01-22T17:19:39.796Z,19.83
2023-01-22T17:22:06.525Z,23.98
2023-01-22T17:24:33.258Z,19.33
2023-01-22T17:27:02.494Z,17.13
2023-01-22T17:29:36.377Z,19.40
2023-01-22T17:32:04.308Z,25.30
2023-01-22T17:34:31.144Z,19.33
2023-01-22T17:36:59.166Z,24.05
2023-01-22T17:39:26.272Z,21.45
2023-01-22T17:41:53.015Z,17.52
2023-01-22T17:44:19.807Z,21.17
2023-01-22T17:46:48.993Z,19.33
2023-01-22T17:49:16.329Z,16.70
2023-01-22T17:51:44.209Z,20.08
2023-01-22T17:54:10.979Z,17.30
2023-01-22T17:56:43.001Z,21.80
2023-01-22T17:59:12.939Z,21.27
2023-01-22T18:01:40.568Z,18.95
2023-01-22T18:04:13.633Z,18.80
2023-01-22T18:06:43.720Z,17.17
2023-01-22T18:09:12.054Z,18.08
2023-01-22T18:11:39.370Z,17.30
2023-01-22T18:14:12.249Z,16.45
2023-01-22T18:16:40.980Z,18.90
2023-01-22T18:19:08.308Z,15.15
2023-01-22T18:21:37.589Z,19.33
2023-01-22T18:24:23.063Z,18.70
2023-01-22T18:26:54.861Z,19.45
2023-01-22T18:29:24.332Z,16.67
2023-01-22T18:31:51.327Z,16.88
2023-01-22T18:34:18.021Z,18.50
2023-01-22T18:36:44.870Z,22.40
2023-01-22T18:39:15.005Z,16.13
2023-01-22T18:41:44.708Z,19.70
2023-01-22T18:44:14.427Z,21.58
2023-01-22T18:46:43.182Z,18.35
2023-01-22T18:49:17.597Z,15.10
2023-01-22T18:51:45.580Z,20.17
2023-01-22T18:54:12.390Z,19.05
2023-01-22T18:56:39.359Z,16.73
2023-01-22T18:59:06.559Z,18.08
2023-01-22T19:01:36.960Z,18.63
2023-01-22T19:04:07.583Z,22.58
2023-01-22T19:06:37.986Z,14.57
2023-01-22T19:09:14.079Z,16.30
2023-01-22T19:11:48.889Z,16.88
2023-01-22T19:14:17.390Z,18.27
2023-01-22T19:16:45.035Z,19.48
2023-01-22T19:19:13.433Z,18.80
2023-01-22T19:21:46.626Z,16.33
2023-01-22T19:24:18.396Z,19.63
2023-01-22T19:26:46.831Z,13.77
2023-01-22T19:29:17.423Z,18.02
2023-01-22T19:31:47.416Z,17.92
2023-01-22T19:34:23.292Z,17.48
2023-01-22T19:36:52.346Z,17.80
2023-01-22T19:39:20.322Z,18.90
2023-01-22T19:41:47.540Z,14.15
2023-01-22T19:44:14.369Z,16.50
2023-01-22T19:46:41.400Z,20.45
2023-01-22T19:49:10.307Z,17.85
2023-01-22T19:51:49.505Z,18.23
2023-01-22T19:54:16.604Z,17.65
2023-01-22T19:56:45.754Z,20.15
2023-01-22T19:59:18.849Z,17.63
2023-01-22T20:01:48.842Z,19.80
2023-01-22T20:04:25.373Z,18.92
2023-01-22T20:07:00.770Z,19.45
2023-01-22T20:09:28.365Z,21.38
2023-01-22T20:11:56.207Z,18.73
2023-01-22T20:14:25.619Z,20.63
2023-01-22T20:16:52.512Z,17.77
2023-01-22T20:19:19.476Z,20.20
2023-01-22T20:21:46.167Z,19.48
2023-01-22T20:24:13.011Z,15.35
2023-01-22T20:26:40.170Z,15.27
2023-01-22T20:29:06.992Z,19.33
2023-01-22T20:31:33.849Z,19.92
2023-01-22T20:34:02.343Z,17.95
2023-01-22T20:36:29.584Z,20.17
2023-01-22T20:38:57.135Z,21.27
2023-01-22T20:41:30.337Z,18.05
2023-01-22T20:43:58.331Z,18.77
2023-01-22T20:46:26.825Z,16.83
2023-01-22T20:48:56.336Z,16.98
2023-01-22T20:51:27.096Z,19.75
2023-01-22T20:53:54.946Z,21.27
2023-01-22T20:56:28.399Z,17.60
2023-01-22T20:58:59.857Z,25.48
2023-01-22T21:01:27.445Z,17.10
2023-01-22T21:03:56.462Z,23.58
2023-01-22T21:06:24.850Z,22.95
2023-01-22T21:08:53.548Z,19.63
2023-01-22T21:11:21.918Z,20.00
2023-01-22T21:13:51.099Z,27.52
2023-01-22T21:16:23.139Z,19.33
2023-01-22T21:18:50.166Z,22.10
2023-01-22T21:21:19.823Z,20.25
2023-01-22T21:23:52.702Z,21.75
2023-01-22T21:26:25.358Z,23.58
2023-01-22T21:31:25.014Z,20.60
2023-01-22T21:34:02.823Z,20.70
2023-01-22T21:36:35.464Z,21.50
2023-01-22T21:39:03.440Z,23.10
2023-01-22T21:41:30.572Z,23.08
2023-01-22T21:44:16.999Z,21.77
2023-01-22T21:46:45.607Z,21.92
2023-01-22T21:49:16.387Z,17.05
2023-01-22T21:51:45.882Z,26.85
2023-01-22T21:54:15.003Z,21.10
2023-01-22T21:56:42.434Z,18.40
2023-01-22T21:59:09.581Z,20.02
2023-01-22T22:01:37.526Z,21.33
2023-01-22T22:04:05.672Z,28.75
2023-01-22T22:06:33.486Z,22.77
2023-01-22T22:09:03.479Z,24.25
2023-01-22T22:11:30.295Z,22.85
2023-01-22T22:13:57.230Z,21.50
2023-01-22T22:16:24.587Z,26.02
2023-01-22T22:18:51.848Z,21.23
2023-01-22T22:21:18.733Z,28.08
2023-01-22T22:23:49.018Z,21.63
2023-01-22T22:26:15.964Z,23.33
2023-01-22T22:28:42.858Z,24.05
2023-01-22T22:31:16.130Z,24.95
2023-01-22T22:33:48.397Z,19.15
2023-01-22T22:36:17.707Z,26.38
2023-01-22T22:38:44.644Z,21.50
2023-01-22T22:41:15.288Z,21.20
2023-01-22T22:43:47.416Z,22.48
2023-01-22T22:46:18.584Z,22.65
2023-01-22T22:48:46.239Z,17.33
2023-01-22T22:51:19.664Z,22.52
2023-01-22T22:53:47.871Z,23.73
2023-01-22T22:56:15.314Z,19.42
2023-01-22T22:58:42.352Z,19.67
2023-01-22T23:01:14.742Z,18.38
2023-01-22T23:03:42.609Z,21.73
2023-01-22T23:06:19.553Z,23.02
2023-01-22T23:08:52.169Z,23.17
2023-01-22T23:11:21.511Z,17.42
2023-01-22T23:13:49.566Z,24.83
2023-01-22T23:16:19.242Z,22.63
2023-01-22T23:18:48.581Z,21.60
2023-01-22T23:21:21.295Z,22.70
2023-01-22T23:26:18.273Z,18.55
2023-01-22T23:28:45.798Z,25.77
2023-01-22T23:31:15.675Z,29.83
2023-01-22T23:33:43.401Z,24.55
2023-01-22T23:36:12.867Z,21.63
2023-01-22T23:38:40.843Z,18.85
2023-01-22T23:41:10.040Z,23.27
2023-01-22T23:43:36.899Z,22.55
2023-01-22T23:46:16.203Z,21.02
2023-01-22T23:48:43.590Z,20.55
2023-01-22T23:51:13.124Z,22.98
2023-01-22T23:53:42.998Z,18.50
2023-01-22T23:56:11.680Z,24.13
2023-01-22T23:58:38.879Z,22.15
